createdAt,value
2022-10-13T00:00:15.719Z,25.90
2022-10-13T00:02:43.648Z,23.23
2022-10-13T00:05:13.009Z,24.80
2022-10-13T00:07:40.923Z,23.57
2022-10-13T00:10:09.139Z,24.10
2022-10-13T00:12:37.389Z,26.63
2022-10-13T00:15:05.840Z,19.87
2022-10-13T00:17:33.794Z,19.30
2022-10-13T00:20:01.783Z,22.10
2022-10-13T00:22:31.125Z,20.60
2022-10-13T00:24:59.036Z,20.93
2022-10-13T00:27:27.022Z,23.67
2022-10-13T00:29:54.954Z,18.47
2022-10-13T00:32:22.864Z,22.77
2022-10-13T00:34:50.816Z,20.17
2022-10-13T00:37:18.696Z,19.57
2022-10-13T00:39:48.020Z,28.43
2022-10-13T00:42:16.114Z,25.03
2022-10-13T00:45:00.910Z,24.13
2022-10-13T00:47:30.330Z,22.47
2022-10-13T00:49:58.555Z,24.23
2022-10-13T00:52:27.027Z,21.90
2022-10-13T00:54:57.088Z,26.17
2022-10-13T00:57:25.072Z,24.13
2022-10-13T00:59:53.119Z,25.83
2022-10-13T01:02:21.405Z,26.13
2022-10-13T01:04:50.091Z,21.47
2022-10-13T01:07:19.176Z,25.17
2022-10-13T01:09:47.439Z,24.53
2022-10-13T01:12:24.644Z,25.53
2022-10-13T01:14:56.916Z,21.93
2022-10-13T01:17:32.082Z,21.23
2022-10-13T01:20:23.557Z,20.60
2022-10-13T01:22:58.831Z,17.27
2022-10-13T01:25:40.629Z,15.17
2022-10-13T01:28:25.590Z,21.63
2022-10-13T01:30:59.669Z,23.10
2022-10-13T01:33:31.870Z,22.30
2022-10-13T01:36:05.253Z,17.57
2022-10-13T01:38:36.318Z,16.77
2022-10-13T01:41:10.233Z,16.57
2022-10-13T01:43:40.919Z,19.20
2022-10-13T01:46:13.773Z,19.83
2022-10-13T01:48:43.050Z,17.13
2022-10-13T01:51:12.532Z,18.93
2022-10-13T01:53:41.057Z,18.03
2022-10-13T01:56:09.099Z,16.87
2022-10-13T01:58:38.019Z,21.63
2022-10-13T02:01:12.269Z,21.37
2022-10-13T02:03:45.307Z,18.97
2022-10-13T02:06:16.727Z,17.87
2022-10-13T02:08:47.568Z,18.80
2022-10-13T02:11:17.009Z,23.77
2022-10-13T02:13:49.687Z,19.87
2022-10-13T02:16:20.807Z,19.60
2022-10-13T02:18:50.863Z,16.17
2022-10-13T02:21:18.980Z,17.17
2022-10-13T02:23:47.414Z,19.97
2022-10-13T02:26:15.683Z,19.23
2022-10-13T02:28:43.740Z,20.17
2022-10-13T02:31:11.808Z,20.93
2022-10-13T02:33:39.759Z,17.67
2022-10-13T02:36:09.121Z,19.70
2022-10-13T02:38:37.071Z,19.07
2022-10-13T02:41:05.032Z,23.93
2022-10-13T02:43:33.984Z,21.57
2022-10-13T02:46:01.865Z,19.93
2022-10-13T02:48:29.829Z,20.33
2022-10-13T02:50:57.737Z,20.33
2022-10-13T02:53:27.114Z,26.70
2022-10-13T02:55:55.045Z,27.13
2022-10-13T02:58:22.987Z,27.10
2022-10-13T03:00:50.923Z,29.53
2022-10-13T03:03:18.936Z,28.07
2022-10-13T03:05:47.078Z,25.77
2022-10-13T03:08:15.527Z,27.97
2022-10-13T03:10:44.860Z,25.23
2022-10-13T03:13:12.774Z,24.80
2022-10-13T03:15:40.698Z,23.30
2022-10-13T03:18:08.724Z,21.97
2022-10-13T03:20:36.646Z,24.67
2022-10-13T03:23:05.057Z,24.67
2022-10-13T03:25:33.294Z,26.00
2022-10-13T03:28:03.608Z,30.07
2022-10-13T03:30:31.671Z,23.00
2022-10-13T03:32:59.566Z,25.33
2022-10-13T03:35:27.620Z,29.33
2022-10-13T03:37:55.777Z,24.40
2022-10-13T03:40:24.730Z,27.77
2022-10-13T03:42:53.846Z,26.03
2022-10-13T03:45:23.328Z,29.77
2022-10-13T03:47:51.243Z,26.07
2022-10-13T03:50:19.188Z,26.63
2022-10-13T03:52:47.198Z,31.83
2022-10-13T03:55:15.311Z,36.53
2022-10-13T03:57:43.742Z,30.10
2022-10-13T04:00:12.394Z,28.93
2022-10-13T04:02:41.776Z,24.60
2022-10-13T04:05:10.072Z,36.13
2022-10-13T04:07:37.980Z,28.57
2022-10-13T04:10:10.223Z,31.80
2022-10-13T04:12:39.276Z,33.90
2022-10-13T04:15:07.800Z,29.20
2022-10-13T04:17:35.739Z,31.77
2022-10-13T04:20:05.985Z,29.00
2022-10-13T04:22:33.894Z,27.37
2022-10-13T04:25:01.807Z,29.23
2022-10-13T04:27:29.691Z,27.10
2022-10-13T04:29:58.084Z,29.43
2022-10-13T04:32:26.004Z,38.00
2022-10-13T04:34:53.907Z,31.70
2022-10-13T04:37:23.378Z,31.37
2022-10-13T04:39:51.289Z,34.63
2022-10-13T04:42:19.417Z,34.33
2022-10-13T04:44:47.614Z,32.97
2022-10-13T04:47:15.514Z,36.93
2022-10-13T04:49:43.488Z,37.37
2022-10-13T04:52:11.411Z,28.47
2022-10-13T04:54:40.753Z,28.00
2022-10-13T04:57:08.680Z,31.20
2022-10-13T04:59:36.647Z,27.10
2022-10-13T05:02:04.632Z,24.27
2022-10-13T05:04:32.606Z,24.67
2022-10-13T05:09:52.091Z,20.93
2022-10-13T05:12:20.204Z,21.60
2022-10-13T05:14:48.260Z,24.60
2022-10-13T05:17:16.237Z,24.33
2022-10-13T05:19:44.565Z,22.07
2022-10-13T05:22:12.448Z,26.40
2022-10-13T05:24:41.020Z,21.73
2022-10-13T05:27:11.133Z,28.43
2022-10-13T05:29:39.191Z,23.10
2022-10-13T05:32:07.528Z,21.87
2022-10-13T05:34:35.535Z,24.53
2022-10-13T05:37:03.474Z,30.70
2022-10-13T05:39:31.376Z,27.60
2022-10-13T05:41:59.300Z,26.40
2022-10-13T05:44:28.652Z,25.50
2022-10-13T05:46:56.699Z,27.87
2022-10-13T05:49:24.594Z,31.63
2022-10-13T05:51:54.778Z,29.20
2022-10-13T05:54:24.608Z,31.10
2022-10-13T05:56:54.463Z,30.63
2022-10-13T05:59:26.927Z,20.83
2022-10-13T06:01:56.963Z,25.13
2022-10-13T06:04:27.096Z,35.73
2022-10-13T06:06:55.117Z,26.43
2022-10-13T06:09:23.074Z,29.17
2022-10-13T06:11:51.379Z,27.83
2022-10-13T06:14:19.900Z,25.00
2022-10-13T06:16:47.820Z,28.00
2022-10-13T06:19:17.307Z,32.13
2022-10-13T06:21:45.199Z,29.83
2022-10-13T06:24:13.155Z,31.10
2022-10-13T06:26:41.382Z,24.53
2022-10-13T06:29:09.552Z,26.93
2022-10-13T06:31:37.512Z,27.77
2022-10-13T06:34:05.541Z,28.43
2022-10-13T06:36:34.895Z,24.93
2022-10-13T06:39:02.801Z,24.73
2022-10-13T06:41:30.692Z,26.50
2022-10-13T06:43:58.679Z,24.67
2022-10-13T06:46:26.584Z,29.70
2022-10-13T06:48:54.515Z,27.47
2022-10-13T06:51:22.802Z,26.27
2022-10-13T06:53:52.201Z,28.97
2022-10-13T06:56:20.102Z,27.17
2022-10-13T06:58:48.379Z,34.10
2022-10-13T07:01:16.395Z,28.10
2022-10-13T07:03:44.510Z,24.73
2022-10-13T07:06:12.404Z,26.33
2022-10-13T07:08:40.475Z,33.33
2022-10-13T07:11:15.880Z,30.97
2022-10-13T07:13:46.677Z,31.20
2022-10-13T07:16:15.391Z,33.37
2022-10-13T07:18:43.430Z,33.90
2022-10-13T07:21:11.437Z,33.27
2022-10-13T07:23:39.376Z,30.83
2022-10-13T07:26:08.849Z,35.47
2022-10-13T07:28:38.251Z,35.73
2022-10-13T07:31:08.845Z,35.83
2022-10-13T07:33:36.830Z,35.27
2022-10-13T07:36:04.866Z,36.33
2022-10-13T07:38:32.769Z,39.17
2022-10-13T07:41:01.777Z,31.53
2022-10-13T07:43:29.721Z,37.20
2022-10-13T07:46:01.131Z,38.80
2022-10-13T07:48:29.771Z,35.30
2022-10-13T07:50:57.786Z,41.77
2022-10-13T07:53:25.721Z,38.60
2022-10-13T07:55:53.613Z,34.73
2022-10-13T07:58:21.532Z,36.57
2022-10-13T08:00:56.768Z,34.70
2022-10-13T08:03:26.260Z,35.33
2022-10-13T08:05:54.662Z,38.33
2022-10-13T08:08:22.704Z,34.10
2022-10-13T08:10:50.669Z,39.33
2022-10-13T08:13:18.569Z,41.80
2022-10-13T08:15:46.815Z,39.20
2022-10-13T08:18:15.668Z,45.23
2022-10-13T08:20:45.612Z,47.37
2022-10-13T08:23:13.861Z,50.00
2022-10-13T08:25:42.155Z,41.03
2022-10-13T08:28:16.411Z,46.27
2022-10-13T08:30:44.552Z,53.93
2022-10-13T08:33:12.597Z,50.87
2022-10-13T08:35:40.611Z,50.33
2022-10-13T08:38:10.333Z,57.30
2022-10-13T08:40:38.923Z,49.63
2022-10-13T08:43:07.718Z,47.30
2022-10-13T08:45:41.332Z,50.07
2022-10-13T08:48:12.805Z,48.10
2022-10-13T08:50:42.362Z,43.83
2022-10-13T08:53:14.546Z,50.80
2022-10-13T08:55:43.323Z,59.00
2022-10-13T08:58:14.046Z,51.40
2022-10-13T09:00:42.887Z,44.93
2022-10-13T09:03:20.979Z,52.33
2022-10-13T09:05:56.909Z,46.33
2022-10-13T09:08:27.474Z,50.80
2022-10-13T09:10:55.376Z,50.80
2022-10-13T09:13:23.336Z,50.97
2022-10-13T09:15:51.649Z,53.30
2022-10-13T09:18:19.760Z,49.60
2022-10-13T09:20:47.820Z,50.53
2022-10-13T09:23:20.125Z,50.17
2022-10-13T09:25:50.700Z,52.63
2022-10-13T09:28:20.499Z,59.60
2022-10-13T09:30:48.524Z,46.33
2022-10-13T09:33:22.302Z,48.27
2022-10-13T09:35:50.855Z,44.50
2022-10-13T09:38:21.213Z,45.67
2022-10-13T09:40:59.413Z,47.83
2022-10-13T09:43:30.809Z,46.13
2022-10-13T09:45:59.251Z,50.80
2022-10-13T09:48:28.307Z,47.37
2022-10-13T09:50:57.239Z,48.33
2022-10-13T09:53:27.342Z,51.80
2022-10-13T09:56:10.169Z,48.60
2022-10-13T09:58:40.100Z,54.93
2022-10-13T10:01:10.143Z,45.80
2022-10-13T10:03:39.806Z,50.33
2022-10-13T10:09:02.058Z,50.00
2022-10-13T10:11:35.226Z,49.57
2022-10-13T10:14:13.605Z,43.10
2022-10-13T10:16:44.926Z,46.60
2022-10-13T10:19:18.368Z,51.03
2022-10-13T10:21:50.050Z,45.00
2022-10-13T10:24:22.832Z,49.07
2022-10-13T10:26:56.505Z,43.37
2022-10-13T10:29:27.530Z,38.27
2022-10-13T10:31:59.482Z,57.50
2022-10-13T10:34:35.956Z,39.43
2022-10-13T10:37:21.422Z,38.60
2022-10-13T10:39:54.092Z,43.10
2022-10-13T10:42:33.086Z,42.07
2022-10-13T10:45:03.822Z,42.33
2022-10-13T10:47:37.667Z,40.10
2022-10-13T10:50:06.729Z,34.70
2022-10-13T10:52:38.728Z,44.70
2022-10-13T10:55:15.312Z,31.80
2022-10-13T10:57:52.667Z,41.40
2022-10-13T11:00:22.250Z,35.33
2022-10-13T11:02:55.037Z,34.50
2022-10-13T11:05:23.087Z,31.90
2022-10-13T11:07:59.226Z,34.43
2022-10-13T11:10:28.087Z,34.03
2022-10-13T11:13:17.146Z,32.97
2022-10-13T11:15:45.741Z,30.37
2022-10-13T11:18:32.173Z,34.23
2022-10-13T11:21:00.427Z,31.63
2022-10-13T11:23:32.173Z,27.00
2022-10-13T11:26:14.873Z,27.40
2022-10-13T11:28:48.422Z,29.83
2022-10-13T11:31:33.654Z,26.30
2022-10-13T11:34:04.015Z,26.40
2022-10-13T11:36:47.898Z,25.03
2022-10-13T11:39:33.227Z,22.90
2022-10-13T11:42:06.852Z,22.13
2022-10-13T11:44:38.985Z,28.27
2022-10-13T11:47:13.300Z,23.83
2022-10-13T11:49:46.674Z,29.97
2022-10-13T11:52:41.588Z,19.83
2022-10-13T11:55:13.664Z,20.30
2022-10-13T11:57:41.607Z,20.00
2022-10-13T12:00:15.041Z,22.37
2022-10-13T12:02:49.118Z,22.13
2022-10-13T12:05:21.677Z,22.13
2022-10-13T12:07:50.708Z,22.30
2022-10-13T12:10:20.795Z,21.13
2022-10-13T12:12:49.823Z,22.17
2022-10-13T12:15:31.354Z,14.63
2022-10-13T12:17:59.316Z,16.90
2022-10-13T12:20:28.251Z,19.77
2022-10-13T12:22:56.645Z,18.30
2022-10-13T12:25:25.453Z,17.30
2022-10-13T12:27:54.046Z,42.23
2022-10-13T12:30:22.765Z,20.60
2022-10-13T12:32:53.452Z,22.00
2022-10-13T12:35:22.063Z,17.40
2022-10-13T12:37:50.118Z,16.47
2022-10-13T12:40:19.273Z,15.93
2022-10-13T12:42:47.506Z,17.00
2022-10-13T12:45:16.838Z,17.47
2022-10-13T12:47:48.899Z,16.63
2022-10-13T12:50:37.994Z,17.90
2022-10-13T12:53:17.109Z,13.67
2022-10-13T12:55:50.226Z,15.73
2022-10-13T12:58:20.187Z,15.90
2022-10-13T13:00:56.031Z,15.10
2022-10-13T13:03:26.409Z,15.07
2022-10-13T13:06:09.661Z,16.23
2022-10-13T13:08:37.619Z,14.13
2022-10-13T13:11:07.165Z,15.67
2022-10-13T13:13:35.540Z,16.90
2022-10-13T13:16:16.849Z,15.07
2022-10-13T13:18:45.112Z,14.80
2022-10-13T13:21:15.563Z,15.17
2022-10-13T13:23:43.818Z,14.60
2022-10-13T13:26:15.412Z,15.47
2022-10-13T13:28:45.802Z,15.60
2022-10-13T13:31:13.982Z,16.30
2022-10-13T13:33:41.985Z,14.37
2022-10-13T13:36:14.581Z,17.20
2022-10-13T13:38:43.924Z,14.90
2022-10-13T13:41:12.283Z,17.87
2022-10-13T13:43:40.432Z,16.67
2022-10-13T13:46:08.845Z,10.70
2022-10-13T13:48:36.738Z,14.77
2022-10-13T13:51:04.796Z,16.20
2022-10-13T13:53:32.746Z,16.83
2022-10-13T13:56:02.250Z,13.00
2022-10-13T13:58:30.179Z,11.10
2022-10-13T14:00:58.274Z,12.73
2022-10-13T14:03:26.212Z,17.37
2022-10-13T14:05:54.223Z,15.17
2022-10-13T14:08:22.134Z,11.70
2022-10-13T14:10:50.058Z,14.47
2022-10-13T14:13:19.469Z,14.57
2022-10-13T14:15:48.160Z,16.73
2022-10-13T14:18:16.593Z,12.87
2022-10-13T14:20:44.480Z,15.53
2022-10-13T14:23:12.434Z,16.77
2022-10-13T14:25:40.367Z,17.90
2022-10-13T14:28:08.319Z,17.00
2022-10-13T14:30:39.942Z,18.20
2022-10-13T14:33:08.078Z,17.57
2022-10-13T14:35:35.998Z,16.87
2022-10-13T14:38:03.920Z,11.00
2022-10-13T14:40:31.855Z,16.47
2022-10-13T14:42:59.760Z,19.17
2022-10-13T14:45:27.714Z,12.40
2022-10-13T14:47:57.044Z,19.67
2022-10-13T14:50:24.958Z,16.77
2022-10-13T14:52:52.859Z,19.07
2022-10-13T14:55:20.798Z,16.93
2022-10-13T14:57:49.814Z,14.83
2022-10-13T15:00:17.810Z,13.60
2022-10-13T15:02:45.773Z,21.00
2022-10-13T15:05:15.249Z,15.30
2022-10-13T15:07:43.166Z,16.27
2022-10-13T15:10:11.444Z,13.90
2022-10-13T15:12:39.380Z,14.37
2022-10-13T15:15:07.705Z,15.63
2022-10-13T15:17:37.073Z,17.43
2022-10-13T15:20:05.327Z,14.50
2022-10-13T15:22:34.772Z,13.60
2022-10-13T15:25:04.541Z,13.37
2022-10-13T15:27:32.443Z,15.10
2022-10-13T15:30:00.814Z,14.17
2022-10-13T15:32:28.788Z,16.07
2022-10-13T15:34:56.789Z,16.27
2022-10-13T15:37:24.715Z,15.33
2022-10-13T15:39:57.411Z,14.93
2022-10-13T15:42:25.723Z,16.70
2022-10-13T15:45:10.907Z,13.60
2022-10-13T15:47:39.473Z,15.87
2022-10-13T15:50:07.910Z,17.97
2022-10-13T15:52:38.609Z,15.80
2022-10-13T15:55:08.614Z,18.97
2022-10-13T15:57:36.520Z,15.23
2022-10-13T16:00:05.707Z,13.17
2022-10-13T16:02:33.632Z,13.27
2022-10-13T16:05:05.100Z,16.57
2022-10-13T16:07:33.055Z,15.37
2022-10-13T16:10:00.992Z,15.83
2022-10-13T16:12:30.362Z,13.87
2022-10-13T16:14:58.273Z,16.37
2022-10-13T16:17:26.243Z,18.70
2022-10-13T16:19:54.797Z,16.73
2022-10-13T16:22:23.051Z,15.17
2022-10-13T16:24:51.202Z,21.07
2022-10-13T16:27:19.419Z,18.10
2022-10-13T16:29:48.761Z,15.73
2022-10-13T16:32:16.676Z,15.50
2022-10-13T16:34:44.593Z,16.67
2022-10-13T16:37:12.535Z,15.13
2022-10-13T16:39:43.814Z,16.47
2022-10-13T16:42:13.447Z,15.13
2022-10-13T16:44:41.381Z,14.33
2022-10-13T16:47:13.651Z,17.70
2022-10-13T16:49:45.362Z,18.67
2022-10-13T16:52:13.251Z,15.67
2022-10-13T16:54:41.178Z,14.63
2022-10-13T16:57:09.172Z,16.30
2022-10-13T16:59:37.138Z,14.43
2022-10-13T17:02:05.108Z,15.70
2022-10-13T17:04:34.450Z,13.87
2022-10-13T17:07:02.367Z,19.70
2022-10-13T17:09:30.360Z,17.57
2022-10-13T17:11:59.647Z,14.40
2022-10-13T17:14:27.542Z,15.17
2022-10-13T17:16:57.790Z,15.37
2022-10-13T17:19:26.225Z,14.67
2022-10-13T17:21:55.560Z,18.00
2022-10-13T17:24:23.608Z,16.00
2022-10-13T17:26:51.660Z,16.23
2022-10-13T17:29:19.583Z,17.80
2022-10-13T17:31:47.655Z,18.53
2022-10-13T17:34:15.604Z,20.87
2022-10-13T17:36:43.566Z,16.00
2022-10-13T17:39:13.849Z,25.83
2022-10-13T17:41:41.903Z,19.30
2022-10-13T17:44:09.829Z,19.23
2022-10-13T17:46:39.152Z,19.33
2022-10-13T17:49:08.037Z,18.33
2022-10-13T17:51:36.283Z,17.43
2022-10-13T17:54:04.852Z,16.80
2022-10-13T17:56:34.461Z,19.43
2022-10-13T17:59:02.566Z,18.97
2022-10-13T18:01:31.692Z,17.50
2022-10-13T18:04:00.673Z,16.13
2022-10-13T18:06:32.568Z,18.40
2022-10-13T18:09:05.653Z,19.87
2022-10-13T18:11:35.148Z,23.60
2022-10-13T18:14:03.137Z,23.30
2022-10-13T18:16:31.024Z,20.03
2022-10-13T18:18:58.974Z,24.07
2022-10-13T18:21:27.442Z,24.00
2022-10-13T18:23:56.772Z,17.43
2022-10-13T18:26:25.404Z,20.97
2022-10-13T18:28:54.846Z,19.73
2022-10-13T18:31:23.735Z,24.57
2022-10-13T18:33:51.932Z,25.53
2022-10-13T18:36:23.522Z,25.30
2022-10-13T18:38:51.476Z,28.70
2022-10-13T18:41:20.214Z,25.33
2022-10-13T18:43:48.208Z,24.10
2022-10-13T18:46:17.580Z,25.00
2022-10-13T18:48:45.531Z,20.33
2022-10-13T18:51:15.499Z,27.47
2022-10-13T18:53:44.384Z,19.73
2022-10-13T18:56:13.681Z,24.80
2022-10-13T18:58:41.627Z,25.80
2022-10-13T19:01:10.848Z,23.43
2022-10-13T19:03:41.084Z,19.40
2022-10-13T19:06:09.638Z,22.07
2022-10-13T19:08:37.952Z,17.10
2022-10-13T19:11:11.668Z,17.37
2022-10-13T19:13:39.674Z,14.93
2022-10-13T19:16:07.689Z,15.27
2022-10-13T19:18:35.602Z,17.57
2022-10-13T19:21:05.180Z,15.03
2022-10-13T19:23:33.092Z,15.67
2022-10-13T19:26:01.114Z,13.50
2022-10-13T19:28:29.081Z,19.83
2022-10-13T19:30:57.009Z,17.27
2022-10-13T19:33:24.890Z,15.30
2022-10-13T19:35:52.988Z,20.13
2022-10-13T19:38:22.571Z,17.07
2022-10-13T19:40:51.357Z,17.07
2022-10-13T19:43:19.463Z,14.40
2022-10-13T19:45:47.885Z,14.57
2022-10-13T19:48:15.901Z,17.77
2022-10-13T19:50:43.871Z,15.37
2022-10-13T19:53:12.401Z,15.77
2022-10-13T19:55:42.053Z,16.60
2022-10-13T19:58:10.154Z,18.37
2022-10-13T20:00:38.251Z,19.03
2022-10-13T20:03:06.660Z,18.93
2022-10-13T20:05:34.672Z,16.07
2022-10-13T20:08:02.620Z,17.60
2022-10-13T20:10:30.549Z,16.90
2022-10-13T20:12:59.879Z,21.17
2022-10-13T20:15:27.768Z,20.23
2022-10-13T20:17:55.649Z,18.47
2022-10-13T20:20:23.597Z,20.03
2022-10-13T20:22:51.462Z,19.33
2022-10-13T20:25:20.171Z,18.53
2022-10-13T20:27:48.142Z,19.60
2022-10-13T20:30:17.631Z,14.70
2022-10-13T20:32:45.530Z,15.53
2022-10-13T20:35:13.689Z,20.53
2022-10-13T20:37:41.722Z,22.77
2022-10-13T20:40:10.079Z,18.57
2022-10-13T20:42:37.972Z,19.60
2022-10-13T20:45:06.381Z,17.97
2022-10-13T20:47:35.677Z,20.90
2022-10-13T20:50:04.968Z,23.43
2022-10-13T20:52:33.190Z,20.93
2022-10-13T20:55:01.097Z,19.70
2022-10-13T20:57:28.995Z,18.67
2022-10-13T20:59:56.922Z,16.33
2022-10-13T21:02:24.779Z,18.50
2022-10-13T21:04:54.125Z,19.17
2022-10-13T21:07:22.393Z,19.17
2022-10-13T21:09:53.797Z,18.40
2022-10-13T21:12:22.183Z,18.33
2022-10-13T21:14:50.102Z,16.73
2022-10-13T21:17:18.040Z,16.50
2022-10-13T21:19:45.970Z,18.13
2022-10-13T21:22:15.316Z,22.07
2022-10-13T21:24:43.296Z,17.03
2022-10-13T21:27:11.196Z,21.67
2022-10-13T21:29:39.066Z,17.47
2022-10-13T21:32:07.072Z,17.07
2022-10-13T21:34:35.113Z,20.83
2022-10-13T21:37:03.042Z,16.70
2022-10-13T21:39:32.340Z,15.87
2022-10-13T21:42:00.239Z,15.43
2022-10-13T21:44:30.081Z,14.43
2022-10-13T21:46:57.982Z,16.40
2022-10-13T21:49:25.845Z,17.10
2022-10-13T21:51:53.775Z,16.47
2022-10-13T21:54:21.760Z,17.17
2022-10-13T21:56:51.167Z,17.60
2022-10-13T21:59:19.085Z,18.77
2022-10-13T22:01:46.960Z,16.37
2022-10-13T22:04:15.675Z,18.53
2022-10-13T22:06:43.561Z,19.17
2022-10-13T22:09:11.534Z,18.47
2022-10-13T22:11:39.663Z,21.63
2022-10-13T22:14:09.292Z,18.43
2022-10-13T22:16:38.162Z,14.63
2022-10-13T22:19:06.225Z,21.20
2022-10-13T22:21:35.748Z,16.43
2022-10-13T22:24:05.222Z,16.30
2022-10-13T22:26:34.230Z,18.40
2022-10-13T22:29:03.099Z,18.20
2022-10-13T22:31:33.876Z,19.53
2022-10-13T22:34:02.600Z,16.43
2022-10-13T22:36:31.719Z,17.63
2022-10-13T22:39:00.577Z,15.43
2022-10-13T22:41:28.720Z,17.17
2022-10-13T22:43:57.237Z,15.67
2022-10-13T22:46:26.110Z,16.87
2022-10-13T22:48:56.355Z,13.87
2022-10-13T22:51:25.591Z,17.50
2022-10-13T22:53:53.521Z,14.47
2022-10-13T22:56:22.335Z,17.70
2022-10-13T22:58:51.124Z,17.20
2022-10-13T23:01:19.028Z,16.10
2022-10-13T23:03:48.205Z,16.00
2022-10-13T23:06:18.254Z,15.50
2022-10-13T23:08:46.196Z,13.73
2022-10-13T23:11:14.110Z,17.20
2022-10-13T23:13:42.059Z,17.10
2022-10-13T23:16:11.241Z,14.80
2022-10-13T23:18:39.177Z,11.23
2022-10-13T23:21:07.135Z,12.60
2022-10-13T23:23:36.593Z,11.50
2022-10-13T23:26:04.979Z,10.93
2022-10-13T23:28:33.201Z,10.00
2022-10-13T23:31:01.818Z,9.63
2022-10-13T23:33:30.112Z,9.83
2022-10-13T23:35:58.360Z,12.13
2022-10-13T23:38:26.611Z,11.47
2022-10-13T23:40:55.962Z,8.60
2022-10-13T23:43:23.816Z,7.77
2022-10-13T23:45:51.692Z,16.37
2022-10-13T23:48:19.588Z,10.30
2022-10-13T23:50:47.468Z,10.77
2022-10-13T23:53:15.388Z,11.07
2022-10-13T23:55:43.546Z,10.33
2022-10-13T23:58:12.973Z,9.93
